sensor_id;sensor_type;location;lat;lon;timestamp;P1;durP1;ratioP1;P2;durP2;ratioP2
13611;SDS011;6877;51.436;6.774;2022-07-06T00:00:12;3.08;;;2.60;;
13611;SDS011;6877;51.436;6.774;2022-07-06T00:02:43;5.05;;;2.40;;
13611;SDS011;6877;51.436;6.774;2022-07-06T00:05:15;3.25;;;2.60;;
13611;SDS011;6877;51.436;6.774;2022-07-06T00:07:46;4.63;;;2.38;;
13611;SDS011;6877;51.436;6.774;2022-07-06T00:10:18;2.42;;;2.13;;
13611;SDS011;6877;51.436;6.774;2022-07-06T00:12:49;5.22;;;2.42;;
13611;SDS011;6877;51.436;6.774;2022-07-06T00:15:16;4.72;;;2.60;;
13611;SDS011;6877;51.436;6.774;2022-07-06T00:17:47;6.20;;;2.30;;
13611;SDS011;6877;51.436;6.774;2022-07-06T00:20:19;2.63;;;2.03;;
13611;SDS011;6877;51.436;6.774;2022-07-06T00:22:50;3.80;;;1.83;;
13611;SDS011;6877;51.436;6.774;2022-07-06T00:25:22;3.25;;;2.15;;
13611;SDS011;6877;51.436;6.774;2022-07-06T00:27:54;2.50;;;2.30;;
13611;SDS011;6877;51.436;6.774;2022-07-06T00:30:25;5.65;;;2.70;;
13611;SDS011;6877;51.436;6.774;2022-07-06T00:32:56;3.47;;;2.13;;
13611;SDS011;6877;51.436;6.774;2022-07-06T00:35:24;4.38;;;2.03;;
13611;SDS011;6877;51.436;6.774;2022-07-06T00:37:51;2.65;;;2.15;;
13611;SDS011;6877;51.436;6.774;2022-07-06T00:40:18;2.72;;;2.05;;
13611;SDS011;6877;51.436;6.774;2022-07-06T00:42:50;2.83;;;2.15;;
13611;SDS011;6877;51.436;6.774;2022-07-06T00:45:22;3.30;;;2.40;;
13611;SDS011;6877;51.436;6.774;2022-07-06T00:47:54;3.17;;;2.40;;
13611;SDS011;6877;51.436;6.774;2022-07-06T00:50:25;4.03;;;2.45;;
13611;SDS011;6877;51.436;6.774;2022-07-06T00:53:00;3.13;;;2.80;;
13611;SDS011;6877;51.436;6.774;2022-07-06T00:55:38;3.20;;;3.00;;
13611;SDS011;6877;51.436;6.774;2022-07-06T00:58:10;5.22;;;2.47;;
13611;SDS011;6877;51.436;6.774;2022-07-06T01:00:42;3.20;;;2.85;;
13611;SDS011;6877;51.436;6.774;2022-07-06T01:03:15;2.70;;;2.50;;
13611;SDS011;6877;51.436;6.774;2022-07-06T01:05:47;2.47;;;2.22;;
13611;SDS011;6877;51.436;6.774;2022-07-06T01:08:13;3.42;;;2.97;;
13611;SDS011;6877;51.436;6.774;2022-07-06T01:10:46;5.68;;;3.85;;
13611;SDS011;6877;51.436;6.774;2022-07-06T01:13:17;3.78;;;2.92;;
13611;SDS011;6877;51.436;6.774;2022-07-06T01:15:49;2.92;;;2.63;;
13611;SDS011;6877;51.436;6.774;2022-07-06T01:18:16;7.93;;;2.80;;
13611;SDS011;6877;51.436;6.774;2022-07-06T01:20:42;5.00;;;2.60;;
13611;SDS011;6877;51.436;6.774;2022-07-06T01:23:14;3.70;;;2.40;;
13611;SDS011;6877;51.436;6.774;2022-07-06T01:25:45;7.90;;;3.97;;
13611;SDS011;6877;51.436;6.774;2022-07-06T01:28:17;4.15;;;2.85;;
13611;SDS011;6877;51.436;6.774;2022-07-06T01:30:48;7.13;;;3.75;;
13611;SDS011;6877;51.436;6.774;2022-07-06T01:33:20;8.30;;;3.72;;
13611;SDS011;6877;51.436;6.774;2022-07-06T01:35:51;4.43;;;3.22;;
13611;SDS011;6877;51.436;6.774;2022-07-06T01:38:23;4.32;;;3.00;;
13611;SDS011;6877;51.436;6.774;2022-07-06T01:40:54;8.77;;;3.90;;
13611;SDS011;6877;51.436;6.774;2022-07-06T01:43:25;3.90;;;3.47;;
13611;SDS011;6877;51.436;6.774;2022-07-06T01:45:57;7.95;;;3.50;;
13611;SDS011;6877;51.436;6.774;2022-07-06T01:48:28;7.25;;;3.53;;
13611;SDS011;6877;51.436;6.774;2022-07-06T01:51:00;7.97;;;4.40;;
13611;SDS011;6877;51.436;6.774;2022-07-06T01:53:31;6.45;;;3.65;;
13611;SDS011;6877;51.436;6.774;2022-07-06T01:56:03;3.92;;;3.20;;
13611;SDS011;6877;51.436;6.774;2022-07-06T01:58:35;5.07;;;3.80;;
13611;SDS011;6877;51.436;6.774;2022-07-06T02:01:10;5.13;;;3.45;;
13611;SDS011;6877;51.436;6.774;2022-07-06T02:03:44;6.97;;;3.10;;
13611;SDS011;6877;51.436;6.774;2022-07-06T02:06:16;9.90;;;4.55;;
13611;SDS011;6877;51.436;6.774;2022-07-06T02:08:47;3.25;;;2.80;;
13611;SDS011;6877;51.436;6.774;2022-07-06T02:11:19;3.97;;;3.15;;
13611;SDS011;6877;51.436;6.774;2022-07-06T02:13:51;3.65;;;2.45;;
13611;SDS011;6877;51.436;6.774;2022-07-06T02:16:22;5.53;;;3.30;;
13611;SDS011;6877;51.436;6.774;2022-07-06T02:18:53;5.90;;;2.97;;
13611;SDS011;6877;51.436;6.774;2022-07-06T02:21:25;5.45;;;2.90;;
13611;SDS011;6877;51.436;6.774;2022-07-06T02:23:56;3.83;;;3.25;;
13611;SDS011;6877;51.436;6.774;2022-07-06T02:26:28;5.97;;;2.60;;
13611;SDS011;6877;51.436;6.774;2022-07-06T02:28:59;3.80;;;2.55;;
13611;SDS011;6877;51.436;6.774;2022-07-06T02:31:31;3.15;;;2.50;;
13611;SDS011;6877;51.436;6.774;2022-07-06T02:33:57;5.72;;;2.90;;
13611;SDS011;6877;51.436;6.774;2022-07-06T02:36:29;4.97;;;2.80;;
13611;SDS011;6877;51.436;6.774;2022-07-06T02:39:00;4.80;;;2.95;;
13611;SDS011;6877;51.436;6.774;2022-07-06T02:41:32;2.55;;;2.35;;
13611;SDS011;6877;51.436;6.774;2022-07-06T02:44:03;5.43;;;2.97;;
13611;SDS011;6877;51.436;6.774;2022-07-06T02:46:35;5.60;;;3.42;;
13611;SDS011;6877;51.436;6.774;2022-07-06T02:49:06;10.18;;;3.13;;
13611;SDS011;6877;51.436;6.774;2022-07-06T02:51:38;8.50;;;3.53;;
13611;SDS011;6877;51.436;6.774;2022-07-06T02:54:09;15.55;;;4.57;;
13611;SDS011;6877;51.436;6.774;2022-07-06T02:56:41;4.35;;;3.45;;
13611;SDS011;6877;51.436;6.774;2022-07-06T02:59:07;5.70;;;3.08;;
13611;SDS011;6877;51.436;6.774;2022-07-06T03:01:38;7.05;;;4.97;;
13611;SDS011;6877;51.436;6.774;2022-07-06T03:04:10;3.92;;;3.10;;
13611;SDS011;6877;51.436;6.774;2022-07-06T03:06:41;5.65;;;3.63;;
13611;SDS011;6877;51.436;6.774;2022-07-06T03:09:08;8.02;;;3.58;;
13611;SDS011;6877;51.436;6.774;2022-07-06T03:11:39;8.15;;;3.70;;
13611;SDS011;6877;51.436;6.774;2022-07-06T03:14:06;4.90;;;3.40;;
13611;SDS011;6877;51.436;6.774;2022-07-06T03:16:32;7.55;;;3.22;;
13611;SDS011;6877;51.436;6.774;2022-07-06T03:19:04;9.15;;;3.92;;
13611;SDS011;6877;51.436;6.774;2022-07-06T03:21:30;6.28;;;4.07;;
13611;SDS011;6877;51.436;6.774;2022-07-06T03:24:02;9.45;;;4.90;;
13611;SDS011;6877;51.436;6.774;2022-07-06T03:26:33;9.15;;;4.32;;
13611;SDS011;6877;51.436;6.774;2022-07-06T03:29:05;7.57;;;3.83;;
13611;SDS011;6877;51.436;6.774;2022-07-06T03:31:36;3.30;;;2.85;;
13611;SDS011;6877;51.436;6.774;2022-07-06T03:34:03;4.40;;;3.53;;
13611;SDS011;6877;51.436;6.774;2022-07-06T03:36:34;5.00;;;3.47;;
13611;SDS011;6877;51.436;6.774;2022-07-06T03:39:06;8.52;;;3.80;;
13611;SDS011;6877;51.436;6.774;2022-07-06T03:41:38;4.80;;;3.50;;
13611;SDS011;6877;51.436;6.774;2022-07-06T03:44:09;6.78;;;4.13;;
13611;SDS011;6877;51.436;6.774;2022-07-06T03:46:41;5.97;;;3.38;;
13611;SDS011;6877;51.436;6.774;2022-07-06T03:49:13;5.55;;;4.07;;
13611;SDS011;6877;51.436;6.774;2022-07-06T03:51:39;8.52;;;4.45;;
13611;SDS011;6877;51.436;6.774;2022-07-06T03:54:11;3.13;;;2.83;;
13611;SDS011;6877;51.436;6.774;2022-07-06T03:56:37;10.45;;;5.03;;
13611;SDS011;6877;51.436;6.774;2022-07-06T03:59:04;6.43;;;5.07;;
13611;SDS011;6877;51.436;6.774;2022-07-06T04:01:36;8.18;;;4.15;;
13611;SDS011;6877;51.436;6.774;2022-07-06T04:04:07;8.00;;;5.15;;
13611;SDS011;6877;51.436;6.774;2022-07-06T04:06:39;4.72;;;3.83;;
13611;SDS011;6877;51.436;6.774;2022-07-06T04:09:10;10.80;;;4.95;;
13611;SDS011;6877;51.436;6.774;2022-07-06T04:11:42;9.52;;;4.85;;
13611;SDS011;6877;51.436;6.774;2022-07-06T04:14:13;21.23;;;5.55;;
13611;SDS011;6877;51.436;6.774;2022-07-06T04:16:45;9.45;;;4.63;;
13611;SDS011;6877;51.436;6.774;2022-07-06T04:19:16;9.57;;;5.15;;
13611;SDS011;6877;51.436;6.774;2022-07-06T04:21:48;6.10;;;4.03;;
13611;SDS011;6877;51.436;6.774;2022-07-06T04:24:19;6.32;;;4.65;;
13611;SDS011;6877;51.436;6.774;2022-07-06T04:26:51;7.35;;;3.78;;
13611;SDS011;6877;51.436;6.774;2022-07-06T04:29:22;6.78;;;4.45;;
13611;SDS011;6877;51.436;6.774;2022-07-06T04:31:48;5.78;;;4.07;;
13611;SDS011;6877;51.436;6.774;2022-07-06T04:34:20;9.88;;;3.88;;
13611;SDS011;6877;51.436;6.774;2022-07-06T04:36:52;8.70;;;4.22;;
13611;SDS011;6877;51.436;6.774;2022-07-06T04:39:23;11.77;;;4.90;;
13611;SDS011;6877;51.436;6.774;2022-07-06T04:41:55;6.60;;;3.78;;
13611;SDS011;6877;51.436;6.774;2022-07-06T04:44:26;8.15;;;3.92;;
13611;SDS011;6877;51.436;6.774;2022-07-06T04:46:58;8.30;;;3.97;;
13611;SDS011;6877;51.436;6.774;2022-07-06T04:49:29;9.02;;;4.55;;
13611;SDS011;6877;51.436;6.774;2022-07-06T04:52:01;7.47;;;4.00;;
13611;SDS011;6877;51.436;6.774;2022-07-06T04:54:32;10.30;;;3.78;;
13611;SDS011;6877;51.436;6.774;2022-07-06T04:57:04;5.95;;;4.63;;
13611;SDS011;6877;51.436;6.774;2022-07-06T04:59:36;7.60;;;4.57;;
13611;SDS011;6877;51.436;6.774;2022-07-06T05:02:07;8.52;;;4.20;;
13611;SDS011;6877;51.436;6.774;2022-07-06T05:04:38;19.75;;;4.75;;
13611;SDS011;6877;51.436;6.774;2022-07-06T05:07:10;6.43;;;5.10;;
13611;SDS011;6877;51.436;6.774;2022-07-06T05:09:41;8.70;;;4.60;;
13611;SDS011;6877;51.436;6.774;2022-07-06T05:12:08;5.40;;;3.78;;
13611;SDS011;6877;51.436;6.774;2022-07-06T05:14:35;7.60;;;3.90;;
13611;SDS011;6877;51.436;6.774;2022-07-06T05:17:07;5.25;;;3.85;;
13611;SDS011;6877;51.436;6.774;2022-07-06T05:19:38;7.65;;;4.88;;
13611;SDS011;6877;51.436;6.774;2022-07-06T05:22:05;9.82;;;4.38;;
13611;SDS011;6877;51.436;6.774;2022-07-06T05:24:31;5.32;;;3.65;;
13611;SDS011;6877;51.436;6.774;2022-07-06T05:26:58;4.82;;;4.30;;
13611;SDS011;6877;51.436;6.774;2022-07-06T05:29:29;9.18;;;4.82;;
13611;SDS011;6877;51.436;6.774;2022-07-06T05:32:01;6.50;;;4.20;;
13611;SDS011;6877;51.436;6.774;2022-07-06T05:34:33;6.22;;;3.92;;
13611;SDS011;6877;51.436;6.774;2022-07-06T05:37:01;7.57;;;3.53;;
13611;SDS011;6877;51.436;6.774;2022-07-06T05:39:28;8.43;;;3.53;;
13611;SDS011;6877;51.436;6.774;2022-07-06T05:42:00;10.10;;;4.45;;
13611;SDS011;6877;51.436;6.774;2022-07-06T05:44:31;8.23;;;4.55;;
13611;SDS011;6877;51.436;6.774;2022-07-06T05:47:03;6.85;;;4.10;;
13611;SDS011;6877;51.436;6.774;2022-07-06T05:49:53;5.72;;;3.90;;
13611;SDS011;6877;51.436;6.774;2022-07-06T05:52:43;7.15;;;3.78;;
13611;SDS011;6877;51.436;6.774;2022-07-06T05:55:25;6.40;;;3.45;;
13611;SDS011;6877;51.436;6.774;2022-07-06T05:57:57;9.70;;;4.32;;
13611;SDS011;6877;51.436;6.774;2022-07-06T06:00:25;8.60;;;3.20;;
13611;SDS011;6877;51.436;6.774;2022-07-06T06:02:58;8.98;;;4.65;;
13611;SDS011;6877;51.436;6.774;2022-07-06T06:05:30;6.55;;;4.20;;
13611;SDS011;6877;51.436;6.774;2022-07-06T06:08:02;4.45;;;3.20;;
13611;SDS011;6877;51.436;6.774;2022-07-06T06:10:33;14.65;;;3.40;;
13611;SDS011;6877;51.436;6.774;2022-07-06T06:13:05;5.88;;;3.45;;
13611;SDS011;6877;51.436;6.774;2022-07-06T06:15:37;3.78;;;2.75;;
13611;SDS011;6877;51.436;6.774;2022-07-06T06:18:08;17.33;;;3.72;;
13611;SDS011;6877;51.436;6.774;2022-07-06T06:20:40;5.38;;;3.22;;
13611;SDS011;6877;51.436;6.774;2022-07-06T06:23:11;5.93;;;2.80;;
13611;SDS011;6877;51.436;6.774;2022-07-06T06:25:43;7.75;;;4.15;;
13611;SDS011;6877;51.436;6.774;2022-07-06T06:28:14;7.25;;;3.00;;
13611;SDS011;6877;51.436;6.774;2022-07-06T06:30:41;6.18;;;2.88;;
13611;SDS011;6877;51.436;6.774;2022-07-06T06:33:08;6.25;;;2.13;;
13611;SDS011;6877;51.436;6.774;2022-07-06T06:35:42;15.32;;;3.10;;
13611;SDS011;6877;51.436;6.774;2022-07-06T06:38:21;6.40;;;2.40;;
13611;SDS011;6877;51.436;6.774;2022-07-06T06:40:56;11.23;;;3.20;;
13611;SDS011;6877;51.436;6.774;2022-07-06T06:43:28;3.80;;;2.35;;
13611;SDS011;6877;51.436;6.774;2022-07-06T06:46:00;4.25;;;2.10;;
13611;SDS011;6877;51.436;6.774;2022-07-06T06:48:26;10.02;;;2.05;;
13611;SDS011;6877;51.436;6.774;2022-07-06T06:50:53;4.82;;;2.47;;
13611;SDS011;6877;51.436;6.774;2022-07-06T06:53:24;5.00;;;2.22;;
13611;SDS011;6877;51.436;6.774;2022-07-06T06:55:55;6.05;;;2.70;;
13611;SDS011;6877;51.436;6.774;2022-07-06T06:58:27;4.93;;;2.10;;
13611;SDS011;6877;51.436;6.774;2022-07-06T07:00:58;8.82;;;2.03;;
13611;SDS011;6877;51.436;6.774;2022-07-06T07:03:30;18.23;;;2.70;;
13611;SDS011;6877;51.436;6.774;2022-07-06T07:06:02;5.90;;;2.60;;
13611;SDS011;6877;51.436;6.774;2022-07-06T07:08:29;5.35;;;2.25;;
13611;SDS011;6877;51.436;6.774;2022-07-06T07:11:00;2.05;;;1.40;;
13611;SDS011;6877;51.436;6.774;2022-07-06T07:13:32;2.72;;;1.30;;
13611;SDS011;6877;51.436;6.774;2022-07-06T07:16:03;4.22;;;1.65;;
13611;SDS011;6877;51.436;6.774;2022-07-06T07:18:35;5.28;;;2.58;;
13611;SDS011;6877;51.436;6.774;2022-07-06T07:21:07;7.68;;;1.70;;
13611;SDS011;6877;51.436;6.774;2022-07-06T07:23:38;4.15;;;1.60;;
13611;SDS011;6877;51.436;6.774;2022-07-06T07:26:09;6.32;;;1.60;;
13611;SDS011;6877;51.436;6.774;2022-07-06T07:28:41;2.72;;;1.65;;
13611;SDS011;6877;51.436;6.774;2022-07-06T07:31:12;4.05;;;1.80;;
13611;SDS011;6877;51.436;6.774;2022-07-06T07:33:39;2.78;;;1.50;;
13611;SDS011;6877;51.436;6.774;2022-07-06T07:36:10;7.38;;;1.63;;
13611;SDS011;6877;51.436;6.774;2022-07-06T07:38:42;4.88;;;1.92;;
13611;SDS011;6877;51.436;6.774;2022-07-06T07:41:13;7.45;;;1.88;;
13611;SDS011;6877;51.436;6.774;2022-07-06T07:43:45;3.78;;;1.40;;
13611;SDS011;6877;51.436;6.774;2022-07-06T07:46:16;7.38;;;1.50;;
13611;SDS011;6877;51.436;6.774;2022-07-06T07:48:43;5.57;;;1.67;;
13611;SDS011;6877;51.436;6.774;2022-07-06T07:51:14;3.88;;;1.45;;
13611;SDS011;6877;51.436;6.774;2022-07-06T07:53:41;5.20;;;1.33;;
13611;SDS011;6877;51.436;6.774;2022-07-06T07:56:12;2.50;;;1.40;;
13611;SDS011;6877;51.436;6.774;2022-07-06T07:58:44;2.00;;;1.20;;
13611;SDS011;6877;51.436;6.774;2022-07-06T08:01:10;5.85;;;2.45;;
13611;SDS011;6877;51.436;6.774;2022-07-06T08:03:42;1.38;;;1.17;;
13611;SDS011;6877;51.436;6.774;2022-07-06T08:06:13;2.50;;;1.80;;
13611;SDS011;6877;51.436;6.774;2022-07-06T08:08:44;4.90;;;2.15;;
13611;SDS011;6877;51.436;6.774;2022-07-06T08:11:11;3.00;;;1.70;;
13611;SDS011;6877;51.436;6.774;2022-07-06T08:13:42;3.88;;;1.35;;
13611;SDS011;6877;51.436;6.774;2022-07-06T08:16:14;1.83;;;1.33;;
13611;SDS011;6877;51.436;6.774;2022-07-06T08:18:40;4.05;;;1.33;;
13611;SDS011;6877;51.436;6.774;2022-07-06T08:21:13;3.63;;;1.92;;
13611;SDS011;6877;51.436;6.774;2022-07-06T08:23:44;5.38;;;1.67;;
13611;SDS011;6877;51.436;6.774;2022-07-06T08:26:16;4.95;;;1.00;;
13611;SDS011;6877;51.436;6.774;2022-07-06T08:28:47;3.28;;;1.27;;
13611;SDS011;6877;51.436;6.774;2022-07-06T08:31:14;5.13;;;1.25;;
13611;SDS011;6877;51.436;6.774;2022-07-06T08:33:45;5.53;;;1.50;;
13611;SDS011;6877;51.436;6.774;2022-07-06T08:36:12;3.22;;;1.38;;
13611;SDS011;6877;51.436;6.774;2022-07-06T08:38:43;4.50;;;1.17;;
13611;SDS011;6877;51.436;6.774;2022-07-06T08:41:15;2.47;;;1.25;;
13611;SDS011;6877;51.436;6.774;2022-07-06T08:43:48;2.15;;;1.38;;
13611;SDS011;6877;51.436;6.774;2022-07-06T08:46:21;1.95;;;1.20;;
13611;SDS011;6877;51.436;6.774;2022-07-06T08:48:52;4.95;;;2.05;;
13611;SDS011;6877;51.436;6.774;2022-07-06T08:51:25;2.17;;;1.10;;
13611;SDS011;6877;51.436;6.774;2022-07-06T08:53:57;4.68;;;2.30;;
13611;SDS011;6877;51.436;6.774;2022-07-06T08:56:29;3.05;;;1.05;;
13611;SDS011;6877;51.436;6.774;2022-07-06T08:59:01;1.73;;;0.80;;
13611;SDS011;6877;51.436;6.774;2022-07-06T09:01:33;6.63;;;1.13;;
13611;SDS011;6877;51.436;6.774;2022-07-06T09:04:05;3.85;;;1.23;;
13611;SDS011;6877;51.436;6.774;2022-07-06T09:06:33;6.03;;;1.17;;
13611;SDS011;6877;51.436;6.774;2022-07-06T09:09:05;0.73;;;0.70;;
13611;SDS011;6877;51.436;6.774;2022-07-06T09:11:38;2.25;;;0.93;;
13611;SDS011;6877;51.436;6.774;2022-07-06T09:14:10;2.95;;;1.08;;
13611;SDS011;6877;51.436;6.774;2022-07-06T09:16:41;0.70;;;0.65;;
13611;SDS011;6877;51.436;6.774;2022-07-06T09:19:13;3.92;;;1.63;;
13611;SDS011;6877;51.436;6.774;2022-07-06T09:21:46;1.92;;;1.02;;
13611;SDS011;6877;51.436;6.774;2022-07-06T09:24:18;2.70;;;1.00;;
13611;SDS011;6877;51.436;6.774;2022-07-06T09:26:50;2.75;;;0.88;;
13611;SDS011;6877;51.436;6.774;2022-07-06T09:29:28;2.53;;;1.30;;
13611;SDS011;6877;51.436;6.774;2022-07-06T09:32:01;4.00;;;1.35;;
13611;SDS011;6877;51.436;6.774;2022-07-06T09:34:41;4.57;;;0.90;;
13611;SDS011;6877;51.436;6.774;2022-07-06T09:37:14;1.88;;;1.17;;
13611;SDS011;6877;51.436;6.774;2022-07-06T09:39:45;4.13;;;0.85;;
13611;SDS011;6877;51.436;6.774;2022-07-06T09:42:12;2.25;;;1.58;;
13611;SDS011;6877;51.436;6.774;2022-07-06T09:44:43;1.73;;;1.17;;
13611;SDS011;6877;51.436;6.774;2022-07-06T09:47:10;2.78;;;0.70;;
13611;SDS011;6877;51.436;6.774;2022-07-06T09:49:42;2.25;;;0.93;;
13611;SDS011;6877;51.436;6.774;2022-07-06T09:52:10;0.85;;;0.50;;
13611;SDS011;6877;51.436;6.774;2022-07-06T09:54:41;0.80;;;0.45;;
13611;SDS011;6877;51.436;6.774;2022-07-06T09:57:13;2.42;;;0.90;;
13611;SDS011;6877;51.436;6.774;2022-07-06T09:59:49;1.50;;;0.90;;
13611;SDS011;6877;51.436;6.774;2022-07-06T10:02:22;1.65;;;0.82;;
13611;SDS011;6877;51.436;6.774;2022-07-06T10:04:57;3.55;;;1.38;;
13611;SDS011;6877;51.436;6.774;2022-07-06T10:07:29;1.33;;;0.63;;
13611;SDS011;6877;51.436;6.774;2022-07-06T10:09:55;0.93;;;0.60;;
13611;SDS011;6877;51.436;6.774;2022-07-06T10:12:27;4.00;;;0.77;;
13611;SDS011;6877;51.436;6.774;2022-07-06T10:14:59;1.88;;;1.00;;
13611;SDS011;6877;51.436;6.774;2022-07-06T10:17:31;2.28;;;0.77;;
13611;SDS011;6877;51.436;6.774;2022-07-06T10:20:03;2.45;;;0.90;;
13611;SDS011;6877;51.436;6.774;2022-07-06T10:22:36;5.43;;;1.05;;
13611;SDS011;6877;51.436;6.774;2022-07-06T10:25:10;4.32;;;0.77;;
13611;SDS011;6877;51.436;6.774;2022-07-06T10:27:42;4.43;;;1.50;;
13611;SDS011;6877;51.436;6.774;2022-07-06T10:30:15;3.90;;;1.65;;
13611;SDS011;6877;51.436;6.774;2022-07-06T10:32:43;4.03;;;1.27;;
13611;SDS011;6877;51.436;6.774;2022-07-06T10:35:15;2.22;;;1.10;;
13611;SDS011;6877;51.436;6.774;2022-07-06T10:38:08;3.17;;;1.20;;
13611;SDS011;6877;51.436;6.774;2022-07-06T10:40:40;3.60;;;1.30;;
13611;SDS011;6877;51.436;6.774;2022-07-06T10:43:38;2.65;;;0.50;;
13611;SDS011;6877;51.436;6.774;2022-07-06T10:46:17;2.10;;;1.00;;
13611;SDS011;6877;51.436;6.774;2022-07-06T10:48:51;1.50;;;0.82;;
13611;SDS011;6877;51.436;6.774;2022-07-06T10:51:26;1.95;;;0.90;;
13611;SDS011;6877;51.436;6.774;2022-07-06T10:54:00;1.20;;;0.70;;
13611;SDS011;6877;51.436;6.774;2022-07-06T10:56:40;3.28;;;0.90;;
13611;SDS011;6877;51.436;6.774;2022-07-06T11:04:44;1.48;;;0.77;;
13611;SDS011;6877;51.436;6.774;2022-07-06T11:07:18;1.48;;;0.80;;
13611;SDS011;6877;51.436;6.774;2022-07-06T11:09:55;1.63;;;0.82;;
13611;SDS011;6877;51.436;6.774;2022-07-06T11:12:27;2.03;;;1.00;;
13611;SDS011;6877;51.436;6.774;2022-07-06T11:14:59;1.25;;;0.70;;
13611;SDS011;6877;51.436;6.774;2022-07-06T11:17:28;2.17;;;0.90;;
13611;SDS011;6877;51.436;6.774;2022-07-06T11:20:08;3.95;;;0.80;;
13611;SDS011;6877;51.436;6.774;2022-07-06T11:22:42;2.72;;;0.70;;
13611;SDS011;6877;51.436;6.774;2022-07-06T11:25:09;1.85;;;0.70;;
13611;SDS011;6877;51.436;6.774;2022-07-06T11:27:41;3.00;;;1.13;;
13611;SDS011;6877;51.436;6.774;2022-07-06T11:30:13;1.35;;;0.85;;
13611;SDS011;6877;51.436;6.774;2022-07-06T11:32:42;1.65;;;0.95;;
13611;SDS011;6877;51.436;6.774;2022-07-06T11:35:20;3.42;;;1.13;;
13611;SDS011;6877;51.436;6.774;2022-07-06T11:37:53;2.13;;;1.17;;
13611;SDS011;6877;51.436;6.774;2022-07-06T11:40:24;3.95;;;1.50;;
13611;SDS011;6877;51.436;6.774;2022-07-06T11:42:56;2.67;;;1.20;;
13611;SDS011;6877;51.436;6.774;2022-07-06T11:45:27;2.53;;;1.10;;
13611;SDS011;6877;51.436;6.774;2022-07-06T11:48:11;8.75;;;1.10;;
13611;SDS011;6877;51.436;6.774;2022-07-06T11:50:43;2.42;;;1.30;;
13611;SDS011;6877;51.436;6.774;2022-07-06T11:53:15;3.17;;;1.10;;
13611;SDS011;6877;51.436;6.774;2022-07-06T11:55:41;3.08;;;1.55;;
13611;SDS011;6877;51.436;6.774;2022-07-06T11:58:13;3.33;;;1.00;;
13611;SDS011;6877;51.436;6.774;2022-07-06T12:00:50;3.38;;;1.13;;
13611;SDS011;6877;51.436;6.774;2022-07-06T12:03:34;1.30;;;1.17;;
13611;SDS011;6877;51.436;6.774;2022-07-06T12:06:10;1.48;;;1.15;;
13611;SDS011;6877;51.436;6.774;2022-07-06T12:08:44;3.85;;;1.40;;
13611;SDS011;6877;51.436;6.774;2022-07-06T12:11:45;2.63;;;1.02;;
13611;SDS011;6877;51.436;6.774;2022-07-06T12:16:49;2.50;;;1.20;;
13611;SDS011;6877;51.436;6.774;2022-07-06T12:19:16;10.52;;;1.17;;
13611;SDS011;6877;51.436;6.774;2022-07-06T12:21:49;2.40;;;1.25;;
13611;SDS011;6877;51.436;6.774;2022-07-06T12:24:21;1.80;;;0.98;;
13611;SDS011;6877;51.436;6.774;2022-07-06T12:27:12;2.35;;;1.00;;
13611;SDS011;6877;51.436;6.774;2022-07-06T12:29:40;1.95;;;1.30;;
13611;SDS011;6877;51.436;6.774;2022-07-06T12:32:16;1.92;;;1.42;;
13611;SDS011;6877;51.436;6.774;2022-07-06T12:35:04;1.45;;;0.98;;
13611;SDS011;6877;51.436;6.774;2022-07-06T12:37:54;3.55;;;1.67;;
13611;SDS011;6877;51.436;6.774;2022-07-06T12:40:26;2.47;;;1.00;;
13611;SDS011;6877;51.436;6.774;2022-07-06T12:42:58;2.63;;;1.30;;
13611;SDS011;6877;51.436;6.774;2022-07-06T12:45:30;2.53;;;1.40;;
13611;SDS011;6877;51.436;6.774;2022-07-06T12:47:58;3.20;;;1.00;;
13611;SDS011;6877;51.436;6.774;2022-07-06T12:50:37;1.10;;;1.00;;
13611;SDS011;6877;51.436;6.774;2022-07-06T12:53:26;1.15;;;0.90;;
13611;SDS011;6877;51.436;6.774;2022-07-06T12:56:10;5.38;;;1.67;;
13611;SDS011;6877;51.436;6.774;2022-07-06T12:58:59;1.30;;;0.98;;
13611;SDS011;6877;51.436;6.774;2022-07-06T13:01:31;2.03;;;1.25;;
13611;SDS011;6877;51.436;6.774;2022-07-06T13:04:06;5.63;;;1.40;;
13611;SDS011;6877;51.436;6.774;2022-07-06T13:06:38;3.80;;;1.30;;
13611;SDS011;6877;51.436;6.774;2022-07-06T13:09:09;2.75;;;1.15;;
13611;SDS011;6877;51.436;6.774;2022-07-06T13:11:41;7.78;;;1.35;;
13611;SDS011;6877;51.436;6.774;2022-07-06T13:14:13;3.00;;;0.88;;
13611;SDS011;6877;51.436;6.774;2022-07-06T13:16:46;5.05;;;1.52;;
13611;SDS011;6877;51.436;6.774;2022-07-06T13:19:14;2.00;;;1.25;;
13611;SDS011;6877;51.436;6.774;2022-07-06T13:21:45;2.58;;;1.20;;
13611;SDS011;6877;51.436;6.774;2022-07-06T13:24:12;7.55;;;1.27;;
13611;SDS011;6877;51.436;6.774;2022-07-06T13:26:39;1.52;;;1.10;;
13611;SDS011;6877;51.436;6.774;2022-07-06T13:29:10;4.15;;;1.23;;
13611;SDS011;6877;51.436;6.774;2022-07-06T13:31:42;3.17;;;1.05;;
13611;SDS011;6877;51.436;6.774;2022-07-06T13:34:13;2.28;;;0.93;;
13611;SDS011;6877;51.436;6.774;2022-07-06T13:36:40;1.30;;;1.00;;
13611;SDS011;6877;51.436;6.774;2022-07-06T13:39:11;3.22;;;1.40;;
13611;SDS011;6877;51.436;6.774;2022-07-06T13:41:38;2.92;;;0.93;;
13611;SDS011;6877;51.436;6.774;2022-07-06T13:44:10;6.80;;;1.20;;
13611;SDS011;6877;51.436;6.774;2022-07-06T13:46:42;2.78;;;1.30;;
13611;SDS011;6877;51.436;6.774;2022-07-06T13:49:09;8.38;;;0.90;;
13611;SDS011;6877;51.436;6.774;2022-07-06T13:51:41;4.13;;;1.40;;
13611;SDS011;6877;51.436;6.774;2022-07-06T13:54:12;2.83;;;1.00;;
13611;SDS011;6877;51.436;6.774;2022-07-06T13:56:44;2.08;;;0.98;;
13611;SDS011;6877;51.436;6.774;2022-07-06T13:59:10;1.10;;;0.95;;
13611;SDS011;6877;51.436;6.774;2022-07-06T14:01:42;1.17;;;1.00;;
13611;SDS011;6877;51.436;6.774;2022-07-06T14:04:13;3.75;;;1.63;;
13611;SDS011;6877;51.436;6.774;2022-07-06T14:06:45;1.92;;;1.20;;
13611;SDS011;6877;51.436;6.774;2022-07-06T14:09:11;1.50;;;0.80;;
13611;SDS011;6877;51.436;6.774;2022-07-06T14:11:43;1.55;;;0.82;;
13611;SDS011;6877;51.436;6.774;2022-07-06T14:14:15;2.80;;;0.90;;
13611;SDS011;6877;51.436;6.774;2022-07-06T14:16:46;5.85;;;1.30;;
13611;SDS011;6877;51.436;6.774;2022-07-06T14:19:22;3.78;;;1.45;;
13611;SDS011;6877;51.436;6.774;2022-07-06T14:21:53;1.92;;;1.30;;
13611;SDS011;6877;51.436;6.774;2022-07-06T14:24:24;1.00;;;1.00;;
13611;SDS011;6877;51.436;6.774;2022-07-06T14:26:51;1.52;;;0.80;;
13611;SDS011;6877;51.436;6.774;2022-07-06T14:29:23;3.28;;;1.42;;
13611;SDS011;6877;51.436;6.774;2022-07-06T14:31:54;3.05;;;1.13;;
13611;SDS011;6877;51.436;6.774;2022-07-06T14:34:25;2.85;;;1.15;;
13611;SDS011;6877;51.436;6.774;2022-07-06T14:36:57;2.17;;;1.27;;
13611;SDS011;6877;51.436;6.774;2022-07-06T14:39:29;3.75;;;0.93;;
13611;SDS011;6877;51.436;6.774;2022-07-06T14:42:00;3.70;;;1.00;;
13611;SDS011;6877;51.436;6.774;2022-07-06T14:44:31;1.10;;;1.00;;
13611;SDS011;6877;51.436;6.774;2022-07-06T14:47:03;1.50;;;1.23;;
13611;SDS011;6877;51.436;6.774;2022-07-06T14:49:35;0.80;;;0.70;;
13611;SDS011;6877;51.436;6.774;2022-07-06T14:52:07;6.00;;;1.20;;
13611;SDS011;6877;51.436;6.774;2022-07-06T14:54:40;0.90;;;0.80;;
13611;SDS011;6877;51.436;6.774;2022-07-06T14:57:11;2.65;;;1.10;;
13611;SDS011;6877;51.436;6.774;2022-07-06T14:59:44;1.02;;;0.93;;
13611;SDS011;6877;51.436;6.774;2022-07-06T15:02:12;1.48;;;1.20;;
13611;SDS011;6877;51.436;6.774;2022-07-06T15:04:43;3.95;;;1.20;;
13611;SDS011;6877;51.436;6.774;2022-07-06T15:07:15;2.20;;;0.80;;
13611;SDS011;6877;51.436;6.774;2022-07-06T15:09:47;2.55;;;1.13;;
13611;SDS011;6877;51.436;6.774;2022-07-06T15:12:19;4.20;;;1.30;;
13611;SDS011;6877;51.436;6.774;2022-07-06T15:14:50;1.70;;;1.10;;
13611;SDS011;6877;51.436;6.774;2022-07-06T15:17:22;4.25;;;1.13;;
13611;SDS011;6877;51.436;6.774;2022-07-06T15:19:54;2.75;;;1.20;;
13611;SDS011;6877;51.436;6.774;2022-07-06T15:22:25;3.60;;;1.33;;
13611;SDS011;6877;51.436;6.774;2022-07-06T15:24:57;2.65;;;0.93;;
13611;SDS011;6877;51.436;6.774;2022-07-06T15:27:29;1.40;;;1.27;;
13611;SDS011;6877;51.436;6.774;2022-07-06T15:30:01;2.50;;;1.17;;
13611;SDS011;6877;51.436;6.774;2022-07-06T15:32:27;2.08;;;0.88;;
13611;SDS011;6877;51.436;6.774;2022-07-06T15:34:59;2.22;;;1.20;;